sensor_id;sensor_type;location;lat;lon;timestamp;pressure;altitude;pressure_sealevel;temperature;humidity
31062;BME280;17724;53.546;9.974;2023-03-26T00:03:47;100175.38;;;8.63;100.00
31062;BME280;17724;53.546;9.974;2023-03-26T00:07:52;100174.56;;;8.68;100.00
31062;BME280;17724;53.546;9.974;2023-03-26T00:11:53;100174.91;;;8.45;100.00
31062;BME280;17724;53.546;9.974;2023-03-26T00:15:54;100176.13;;;8.54;100.00
31062;BME280;17724;53.546;9.974;2023-03-26T00:19:54;100176.69;;;8.61;100.00
31062;BME280;17724;53.546;9.974;2023-03-26T00:24:01;100199.38;;;8.83;100.00
31062;BME280;17724;53.546;9.974;2023-03-26T00:28:04;100202.59;;;8.75;100.00
31062;BME280;17724;53.546;9.974;2023-03-26T00:32:06;100204.69;;;8.63;100.00
31062;BME280;17724;53.546;9.974;2023-03-26T00:36:12;100202.94;;;8.52;100.00
31062;BME280;17724;53.546;9.974;2023-03-26T00:40:17;100204.59;;;8.53;100.00
31062;BME280;17724;53.546;9.974;2023-03-26T00:44:17;100217.81;;;8.61;100.00
31062;BME280;17724;53.546;9.974;2023-03-26T00:48:19;100211.09;;;8.74;100.00
31062;BME280;17724;53.546;9.974;2023-03-26T00:52:20;100214.16;;;8.50;100.00
31062;BME280;17724;53.546;9.974;2023-03-26T00:56:20;100219.34;;;8.47;100.00
31062;BME280;17724;53.546;9.974;2023-03-26T01:00:28;100222.91;;;8.47;100.00
31062;BME280;17724;53.546;9.974;2023-03-26T01:04:31;100236.91;;;8.51;100.00
31062;BME280;17724;53.546;9.974;2023-03-26T01:08:42;100231.63;;;8.44;100.00
31062;BME280;17724;53.546;9.974;2023-03-26T01:12:44;100248.13;;;8.49;100.00
31062;BME280;17724;53.546;9.974;2023-03-26T01:16:53;100248.28;;;8.15;100.00
31062;BME280;17724;53.546;9.974;2023-03-26T01:20:54;100261.16;;;8.15;100.00
31062;BME280;17724;53.546;9.974;2023-03-26T01:25:04;100273.69;;;8.11;100.00
31062;BME280;17724;53.546;9.974;2023-03-26T01:29:11;100262.03;;;7.99;100.00
31062;BME280;17724;53.546;9.974;2023-03-26T01:33:40;100258.84;;;7.85;100.00
31062;BME280;17724;53.546;9.974;2023-03-26T01:38:04;100271.41;;;8.03;100.00
31062;BME280;17724;53.546;9.974;2023-03-26T01:42:14;100279.16;;;8.11;100.00
31062;BME280;17724;53.546;9.974;2023-03-26T01:46:19;100276.66;;;8.09;100.00
31062;BME280;17724;53.546;9.974;2023-03-26T01:50:21;100278.84;;;8.07;100.00
31062;BME280;17724;53.546;9.974;2023-03-26T01:54:25;100275.34;;;7.90;100.00
31062;BME280;17724;53.546;9.974;2023-03-26T01:58:51;100290.22;;;7.77;100.00
31062;BME280;17724;53.546;9.974;2023-03-26T02:07:05;100282.72;;;7.89;100.00
31062;BME280;17724;53.546;9.974;2023-03-26T02:11:10;100291.50;;;7.92;100.00
31062;BME280;17724;53.546;9.974;2023-03-26T02:15:12;100287.47;;;7.77;100.00
31062;BME280;17724;53.546;9.974;2023-03-26T02:19:14;100277.50;;;7.88;100.00
31062;BME280;17724;53.546;9.974;2023-03-26T02:23:20;100273.03;;;8.04;100.00
31062;BME280;17724;53.546;9.974;2023-03-26T02:27:21;100284.72;;;7.77;100.00
31062;BME280;17724;53.546;9.974;2023-03-26T02:31:22;100287.69;;;7.93;100.00
31062;BME280;17724;53.546;9.974;2023-03-26T02:35:25;100282.78;;;7.95;100.00
31062;BME280;17724;53.546;9.974;2023-03-26T02:39:32;100286.78;;;8.09;100.00
31062;BME280;17724;53.546;9.974;2023-03-26T02:43:37;100289.41;;;7.99;100.00
31062;BME280;17724;53.546;9.974;2023-03-26T02:47:40;100287.69;;;7.93;100.00
31062;BME280;17724;53.546;9.974;2023-03-26T02:51:59;100287.78;;;7.81;100.00
31062;BME280;17724;53.546;9.974;2023-03-26T02:56:01;100294.56;;;7.56;100.00
31062;BME280;17724;53.546;9.974;2023-03-26T03:00:08;100288.22;;;7.73;100.00
31062;BME280;17724;53.546;9.974;2023-03-26T03:04:30;100292.72;;;7.62;100.00
31062;BME280;17724;53.546;9.974;2023-03-26T03:08:30;100295.94;;;7.76;100.00
31062;BME280;17724;53.546;9.974;2023-03-26T03:12:47;100311.81;;;7.57;100.00
31062;BME280;17724;53.546;9.974;2023-03-26T03:16:47;100295.41;;;7.40;100.00
31062;BME280;17724;53.546;9.974;2023-03-26T03:20:47;100299.63;;;7.14;100.00
31062;BME280;17724;53.546;9.974;2023-03-26T03:24:49;100294.34;;;7.24;100.00
31062;BME280;17724;53.546;9.974;2023-03-26T03:28:51;100297.22;;;7.18;100.00
31062;BME280;17724;53.546;9.974;2023-03-26T03:32:51;100290.53;;;7.42;100.00
31062;BME280;17724;53.546;9.974;2023-03-26T03:36:55;100291.59;;;7.41;100.00
31062;BME280;17724;53.546;9.974;2023-03-26T03:41:07;100278.94;;;7.35;100.00
31062;BME280;17724;53.546;9.974;2023-03-26T03:45:11;100294.25;;;7.36;100.00
31062;BME280;17724;53.546;9.974;2023-03-26T03:49:50;100294.06;;;7.59;100.00
31062;BME280;17724;53.546;9.974;2023-03-26T03:53:51;100299.84;;;7.80;100.00
31062;BME280;17724;53.546;9.974;2023-03-26T03:58:03;100299.63;;;7.48;100.00
31062;BME280;17724;53.546;9.974;2023-03-26T04:02:05;100295.75;;;7.44;100.00
31062;BME280;17724;53.546;9.974;2023-03-26T04:06:12;100296.50;;;7.39;100.00
31062;BME280;17724;53.546;9.974;2023-03-26T04:10:14;100292.75;;;7.45;100.00
31062;BME280;17724;53.546;9.974;2023-03-26T04:14:44;100296.09;;;7.30;100.00
31062;BME280;17724;53.546;9.974;2023-03-26T04:18:47;100299.97;;;7.34;100.00
31062;BME280;17724;53.546;9.974;2023-03-26T04:22:48;100290.66;;;7.52;100.00
31062;BME280;17724;53.546;9.974;2023-03-26T04:26:51;100297.16;;;7.29;100.00
31062;BME280;17724;53.546;9.974;2023-03-26T04:30:58;100295.25;;;7.30;100.00
31062;BME280;17724;53.546;9.974;2023-03-26T04:35:11;100283.66;;;7.23;100.00
31062;BME280;17724;53.546;9.974;2023-03-26T04:39:15;100290.09;;;7.16;100.00
31062;BME280;17724;53.546;9.974;2023-03-26T04:43:39;100290.59;;;7.13;99.29
31062;BME280;17724;53.546;9.974;2023-03-26T04:48:12;100292.28;;;7.14;99.06
31062;BME280;17724;53.546;9.974;2023-03-26T04:52:14;100296.88;;;7.14;98.56
31062;BME280;17724;53.546;9.974;2023-03-26T04:56:45;100305.50;;;7.06;98.48
31062;BME280;17724;53.546;9.974;2023-03-26T05:00:53;100299.47;;;6.87;98.93
31062;BME280;17724;53.546;9.974;2023-03-26T05:04:54;100304.44;;;7.24;99.36
31062;BME280;17724;53.546;9.974;2023-03-26T05:08:57;100296.94;;;6.85;98.08
31062;BME280;17724;53.546;9.974;2023-03-26T05:13:21;100298.88;;;7.02;98.30
31062;BME280;17724;53.546;9.974;2023-03-26T05:17:26;100302.63;;;7.12;98.46
31062;BME280;17724;53.546;9.974;2023-03-26T05:21:30;100293.09;;;7.15;99.14
31062;BME280;17724;53.546;9.974;2023-03-26T05:25:31;100295.25;;;7.13;98.55
31062;BME280;17724;53.546;9.974;2023-03-26T05:29:33;100298.97;;;7.07;98.97
31062;BME280;17724;53.546;9.974;2023-03-26T05:33:35;100294.91;;;7.09;100.00
31062;BME280;17724;53.546;9.974;2023-03-26T05:37:45;100304.53;;;7.12;99.60
31062;BME280;17724;53.546;9.974;2023-03-26T05:41:46;100304.03;;;6.98;100.00
31062;BME280;17724;53.546;9.974;2023-03-26T05:45:47;100313.56;;;7.12;100.00
31062;BME280;17724;53.546;9.974;2023-03-26T05:49:55;100316.06;;;6.69;100.00
31062;BME280;17724;53.546;9.974;2023-03-26T05:53:56;100317.47;;;6.71;100.00
31062;BME280;17724;53.546;9.974;2023-03-26T05:57:59;100323.03;;;6.76;100.00
31062;BME280;17724;53.546;9.974;2023-03-26T06:02:21;100311.97;;;6.83;100.00
31062;BME280;17724;53.546;9.974;2023-03-26T06:06:42;100308.94;;;6.68;100.00
31062;BME280;17724;53.546;9.974;2023-03-26T06:10:44;100328.19;;;6.89;100.00
31062;BME280;17724;53.546;9.974;2023-03-26T06:14:44;100330.03;;;7.01;100.00
31062;BME280;17724;53.546;9.974;2023-03-26T06:18:51;100327.91;;;7.03;100.00
31062;BME280;17724;53.546;9.974;2023-03-26T06:23:03;100321.69;;;7.24;100.00
31062;BME280;17724;53.546;9.974;2023-03-26T06:27:20;100326.75;;;7.32;100.00
31062;BME280;17724;53.546;9.974;2023-03-26T06:31:55;100324.59;;;7.51;99.23
31062;BME280;17724;53.546;9.974;2023-03-26T06:36:07;100336.44;;;7.23;98.71
31062;BME280;17724;53.546;9.974;2023-03-26T06:40:09;100322.59;;;7.63;99.27
31062;BME280;17724;53.546;9.974;2023-03-26T06:44:28;100339.75;;;7.59;97.18
31062;BME280;17724;53.546;9.974;2023-03-26T06:48:47;100347.31;;;7.52;96.96
31062;BME280;17724;53.546;9.974;2023-03-26T06:53:00;100351.44;;;7.71;95.75
31062;BME280;17724;53.546;9.974;2023-03-26T06:57:24;100356.09;;;7.37;92.26
31062;BME280;17724;53.546;9.974;2023-03-26T07:01:43;100359.06;;;7.69;93.47
31062;BME280;17724;53.546;9.974;2023-03-26T07:06:03;100360.63;;;7.99;91.92
31062;BME280;17724;53.546;9.974;2023-03-26T07:10:22;100359.16;;;8.13;92.01
31062;BME280;17724;53.546;9.974;2023-03-26T07:14:46;100358.59;;;8.33;91.07
31062;BME280;17724;53.546;9.974;2023-03-26T07:19:12;100367.81;;;8.05;83.92
31062;BME280;17724;53.546;9.974;2023-03-26T07:23:15;100367.59;;;7.89;81.36
31062;BME280;17724;53.546;9.974;2023-03-26T07:27:44;100371.25;;;8.34;82.09
31062;BME280;17724;53.546;9.974;2023-03-26T07:36:31;100374.81;;;8.18;74.89
31062;BME280;17724;53.546;9.974;2023-03-26T07:41:05;100369.94;;;8.20;72.74
31062;BME280;17724;53.546;9.974;2023-03-26T07:45:41;100366.66;;;8.61;73.81
31062;BME280;17724;53.546;9.974;2023-03-26T07:50:03;100374.75;;;8.12;69.15
31062;BME280;17724;53.546;9.974;2023-03-26T07:54:17;100384.53;;;8.25;69.57
31062;BME280;17724;53.546;9.974;2023-03-26T08:03:42;100374.97;;;8.67;69.60
31062;BME280;17724;53.546;9.974;2023-03-26T08:08:17;100373.00;;;8.62;69.96
31062;BME280;17724;53.546;9.974;2023-03-26T08:13:13;100380.78;;;8.31;68.37
31062;BME280;17724;53.546;9.974;2023-03-26T08:17:27;100387.34;;;8.30;67.46
31062;BME280;17724;53.546;9.974;2023-03-26T08:21:37;100381.41;;;8.55;67.23
31062;BME280;17724;53.546;9.974;2023-03-26T08:25:55;100374.25;;;8.76;69.68
31062;BME280;17724;53.546;9.974;2023-03-26T08:30:21;100367.78;;;8.66;69.34
31062;BME280;17724;53.546;9.974;2023-03-26T08:34:22;100367.59;;;8.72;68.53
31062;BME280;17724;53.546;9.974;2023-03-26T08:38:23;100380.31;;;8.56;68.03
31062;BME280;17724;53.546;9.974;2023-03-26T08:55:33;100371.16;;;8.95;66.24
31062;BME280;17724;53.546;9.974;2023-03-26T09:03:56;100371.81;;;9.34;67.57
31062;BME280;17724;53.546;9.974;2023-03-26T09:16:55;100371.31;;;9.74;65.18
31062;BME280;17724;53.546;9.974;2023-03-26T09:21:30;100377.25;;;10.41;60.22
31062;BME280;17724;53.546;9.974;2023-03-26T09:34:21;100379.41;;;11.06;54.46
31062;BME280;17724;53.546;9.974;2023-03-26T09:42:43;100376.19;;;10.47;55.80
31062;BME280;17724;53.546;9.974;2023-03-26T09:51:31;100390.69;;;9.95;57.90
31062;BME280;17724;53.546;9.974;2023-03-26T09:59:46;100398.97;;;11.10;51.00
31062;BME280;17724;53.546;9.974;2023-03-26T10:12:35;100378.06;;;11.14;56.53
31062;BME280;17724;53.546;9.974;2023-03-26T10:21:25;100387.63;;;10.86;55.14
31062;BME280;17724;53.546;9.974;2023-03-26T10:30:06;100389.69;;;10.53;51.80
31062;BME280;17724;53.546;9.974;2023-03-26T10:34:29;100383.22;;;11.00;53.65
31062;BME280;17724;53.546;9.974;2023-03-26T10:38:56;100385.69;;;10.97;52.73
31062;BME280;17724;53.546;9.974;2023-03-26T10:55:36;100383.22;;;11.00;54.16
31062;BME280;17724;53.546;9.974;2023-03-26T10:59:37;100373.88;;;10.96;56.70
31062;BME280;17724;53.546;9.974;2023-03-26T11:08:05;100367.84;;;10.94;53.14
31062;BME280;17724;53.546;9.974;2023-03-26T11:13:06;100379.09;;;10.93;52.99
31062;BME280;17724;53.546;9.974;2023-03-26T11:33:51;100383.84;;;10.40;52.03
31062;BME280;17724;53.546;9.974;2023-03-26T11:37:55;100378.69;;;10.53;53.51
31062;BME280;17724;53.546;9.974;2023-03-26T11:42:06;100353.63;;;10.45;51.77
31062;BME280;17724;53.546;9.974;2023-03-26T11:46:20;100361.63;;;10.46;52.83
31062;BME280;17724;53.546;9.974;2023-03-26T11:50:26;100342.66;;;10.50;54.04
31062;BME280;17724;53.546;9.974;2023-03-26T11:54:28;100356.66;;;10.48;51.90
31062;BME280;17724;53.546;9.974;2023-03-26T11:58:37;100357.28;;;10.66;53.27
31062;BME280;17724;53.546;9.974;2023-03-26T12:02:40;100348.28;;;11.01;53.26
31062;BME280;17724;53.546;9.974;2023-03-26T12:07:05;100353.44;;;10.67;50.23
31062;BME280;17724;53.546;9.974;2023-03-26T12:11:09;100358.66;;;10.68;51.54
31062;BME280;17724;53.546;9.974;2023-03-26T12:15:15;100346.47;;;10.39;51.17
31062;BME280;17724;53.546;9.974;2023-03-26T12:19:18;100359.00;;;10.24;49.32
31062;BME280;17724;53.546;9.974;2023-03-26T12:23:39;100344.72;;;10.22;51.15
31062;BME280;17724;53.546;9.974;2023-03-26T12:32:15;100345.19;;;10.67;51.82
31062;BME280;17724;53.546;9.974;2023-03-26T12:36:25;100351.13;;;10.38;50.12
31062;BME280;17724;53.546;9.974;2023-03-26T12:40:33;100353.16;;;10.68;52.53
31062;BME280;17724;53.546;9.974;2023-03-26T12:44:45;100349.88;;;10.66;51.64
31062;BME280;17724;53.546;9.974;2023-03-26T12:48:46;100359.97;;;10.50;50.33
31062;BME280;17724;53.546;9.974;2023-03-26T12:57:35;100350.69;;;10.72;50.45
31062;BME280;17724;53.546;9.974;2023-03-26T13:01:53;100350.94;;;10.65;50.55
31062;BME280;17724;53.546;9.974;2023-03-26T13:10:40;100353.72;;;10.70;49.88
31062;BME280;17724;53.546;9.974;2023-03-26T13:15:03;100351.78;;;10.66;50.46
31062;BME280;17724;53.546;9.974;2023-03-26T13:19:14;100347.72;;;10.78;49.94
31062;BME280;17724;53.546;9.974;2023-03-26T13:23:32;100336.16;;;10.81;50.68
31062;BME280;17724;53.546;9.974;2023-03-26T13:40:56;100336.75;;;11.09;50.39
31062;BME280;17724;53.546;9.974;2023-03-26T13:49:22;100326.84;;;11.08;50.48
31062;BME280;17724;53.546;9.974;2023-03-26T13:53:31;100328.75;;;10.87;49.22
31062;BME280;17724;53.546;9.974;2023-03-26T13:57:38;100324.88;;;10.83;49.59
31062;BME280;17724;53.546;9.974;2023-03-26T14:01:47;100337.81;;;10.93;51.25
31062;BME280;17724;53.546;9.974;2023-03-26T14:05:53;100324.31;;;10.81;50.64
31062;BME280;17724;53.546;9.974;2023-03-26T14:10:02;100336.75;;;11.24;50.18
31062;BME280;17724;53.546;9.974;2023-03-26T14:14:16;100340.09;;;11.47;49.40
31062;BME280;17724;53.546;9.974;2023-03-26T14:18:45;100343.38;;;11.23;50.32
31062;BME280;17724;53.546;9.974;2023-03-26T14:31:38;100345.28;;;11.02;50.38
31062;BME280;17724;53.546;9.974;2023-03-26T14:36:16;100338.97;;;11.17;50.66
31062;BME280;17724;53.546;9.974;2023-03-26T14:53:37;100346.97;;;11.49;51.92
31062;BME280;17724;53.546;9.974;2023-03-26T15:49:53;100354.09;;;11.25;50.87
31062;BME280;17724;53.546;9.974;2023-03-26T15:54:14;100361.22;;;11.00;50.96
31062;BME280;17724;53.546;9.974;2023-03-26T15:58:43;100356.28;;;10.97;52.11
31062;BME280;17724;53.546;9.974;2023-03-26T16:11:12;100369.50;;;11.05;51.47
31062;BME280;17724;53.546;9.974;2023-03-26T16:15:27;100371.66;;;10.88;50.24
31062;BME280;17724;53.546;9.974;2023-03-26T16:32:16;100381.75;;;10.62;51.51
31062;BME280;17724;53.546;9.974;2023-03-26T16:36:32;100382.59;;;10.68;51.79
31062;BME280;17724;53.546;9.974;2023-03-26T16:40:35;100389.13;;;10.56;50.52
31062;BME280;17724;53.546;9.974;2023-03-26T16:54:05;100397.59;;;10.45;52.23
31062;BME280;17724;53.546;9.974;2023-03-26T16:58:29;100405.84;;;10.45;51.35
31062;BME280;17724;53.546;9.974;2023-03-26T17:10:59;100411.94;;;10.47;53.91
31062;BME280;17724;53.546;9.974;2023-03-26T17:28:17;100432.19;;;10.30;54.94
31062;BME280;17724;53.546;9.974;2023-03-26T17:32:21;100434.56;;;10.22;56.82
31062;BME280;17724;53.546;9.974;2023-03-26T17:36:30;100434.97;;;10.03;57.09
31062;BME280;17724;53.546;9.974;2023-03-26T17:44:56;100451.25;;;10.10;58.17
31062;BME280;17724;53.546;9.974;2023-03-26T17:53:30;100460.34;;;10.16;61.34
31062;BME280;17724;53.546;9.974;2023-03-26T17:57:39;100473.47;;;9.76;59.07
31062;BME280;17724;53.546;9.974;2023-03-26T18:01:42;100477.19;;;9.92;60.15
31062;BME280;17724;53.546;9.974;2023-03-26T18:05:46;100485.75;;;9.96;60.07
31062;BME280;17724;53.546;9.974;2023-03-26T18:14:14;100487.13;;;9.66;62.13
31062;BME280;17724;53.546;9.974;2023-03-26T18:18:21;100493.13;;;9.63;61.58
31062;BME280;17724;53.546;9.974;2023-03-26T18:22:25;100498.78;;;9.51;60.64
31062;BME280;17724;53.546;9.974;2023-03-26T18:30:44;100504.28;;;9.29;68.29
31062;BME280;17724;53.546;9.974;2023-03-26T18:34:48;100520.47;;;9.53;65.96
31062;BME280;17724;53.546;9.974;2023-03-26T18:38:57;100528.09;;;9.46;66.56
31062;BME280;17724;53.546;9.974;2023-03-26T18:42:58;100533.75;;;9.34;65.38
31062;BME280;17724;53.546;9.974;2023-03-26T18:47:04;100541.69;;;9.13;65.14
31062;BME280;17724;53.546;9.974;2023-03-26T18:51:06;100548.84;;;8.93;63.54
31062;BME280;17724;53.546;9.974;2023-03-26T18:55:11;100550.91;;;9.02;66.02
31062;BME280;17724;53.546;9.974;2023-03-26T18:59:31;100556.63;;;9.01;63.15
31062;BME280;17724;53.546;9.974;2023-03-26T19:03:37;100559.75;;;9.09;61.16
31062;BME280;17724;53.546;9.974;2023-03-26T19:07:39;100579.09;;;8.81;61.28
31062;BME280;17724;53.546;9.974;2023-03-26T19:11:40;100580.69;;;8.77;59.47
31062;BME280;17724;53.546;9.974;2023-03-26T19:15:42;100591.38;;;8.39;55.76
31062;BME280;17724;53.546;9.974;2023-03-26T19:19:45;100594.19;;;8.45;55.24
31062;BME280;17724;53.546;9.974;2023-03-26T19:23:46;100594.56;;;8.36;54.47
31062;BME280;17724;53.546;9.974;2023-03-26T19:27:48;100585.25;;;8.04;53.90
31062;BME280;17724;53.546;9.974;2023-03-26T19:31:50;100601.13;;;8.19;55.60
31062;BME280;17724;53.546;9.974;2023-03-26T19:36:00;100603.94;;;8.24;55.44
31062;BME280;17724;53.546;9.974;2023-03-26T19:40:13;100626.19;;;8.10;53.18
31062;BME280;17724;53.546;9.974;2023-03-26T19:48:18;100630.97;;;7.75;51.01
31062;BME280;17724;53.546;9.974;2023-03-26T19:52:25;100635.91;;;7.61;49.99
31062;BME280;17724;53.546;9.974;2023-03-26T19:56:27;100640.06;;;7.63;50.38
31062;BME280;17724;53.546;9.974;2023-03-26T20:00:28;100649.38;;;7.51;49.14
31062;BME280;17724;53.546;9.974;2023-03-26T20:04:29;100647.56;;;7.56;49.61
31062;BME280;17724;53.546;9.974;2023-03-26T20:08:32;100656.28;;;7.41;48.29
31062;BME280;17724;53.546;9.974;2023-03-26T20:12:32;100657.38;;;7.40;47.79
31062;BME280;17724;53.546;9.974;2023-03-26T20:16:33;100662.94;;;7.46;48.55
31062;BME280;17724;53.546;9.974;2023-03-26T20:20:34;100671.03;;;7.40;48.26
31062;BME280;17724;53.546;9.974;2023-03-26T20:24:35;100678.69;;;7.27;49.03
31062;BME280;17724;53.546;9.974;2023-03-26T20:28:36;100674.63;;;7.18;49.46
31062;BME280;17724;53.546;9.974;2023-03-26T20:32:36;100675.81;;;7.22;49.82
31062;BME280;17724;53.546;9.974;2023-03-26T20:36:37;100681.44;;;7.15;50.08
31062;BME280;17724;53.546;9.974;2023-03-26T20:40:38;100688.31;;;7.06;50.38
31062;BME280;17724;53.546;9.974;2023-03-26T20:44:39;100696.28;;;6.96;50.41
31062;BME280;17724;53.546;9.974;2023-03-26T20:48:41;100697.59;;;7.05;51.78
31062;BME280;17724;53.546;9.974;2023-03-26T20:52:43;100695.47;;;7.07;52.32
31062;BME280;17724;53.546;9.974;2023-03-26T20:56:44;100706.81;;;6.69;50.75
31062;BME280;17724;53.546;9.974;2023-03-26T21:00:47;100710.19;;;6.40;51.67
31062;BME280;17724;53.546;9.974;2023-03-26T21:04:49;100717.28;;;6.30;51.63
31062;BME280;17724;53.546;9.974;2023-03-26T21:08:59;100726.13;;;6.13;52.62
31062;BME280;17724;53.546;9.974;2023-03-26T21:17:21;100736.47;;;6.11;53.38
31062;BME280;17724;53.546;9.974;2023-03-26T21:21:25;100741.03;;;5.99;53.64
31062;BME280;17724;53.546;9.974;2023-03-26T21:25:59;100746.25;;;6.01;53.99
31062;BME280;17724;53.546;9.974;2023-03-26T21:30:10;100745.66;;;5.99;53.86
31062;BME280;17724;53.546;9.974;2023-03-26T21:34:13;100760.78;;;5.76;54.13
31062;BME280;17724;53.546;9.974;2023-03-26T21:38:16;100740.84;;;5.57;54.33
31062;BME280;17724;53.546;9.974;2023-03-26T21:42:19;100759.16;;;5.93;54.67
31062;BME280;17724;53.546;9.974;2023-03-26T21:46:20;100769.56;;;5.78;54.75
31062;BME280;17724;53.546;9.974;2023-03-26T21:50:21;100755.88;;;5.48;55.29
31062;BME280;17724;53.546;9.974;2023-03-26T21:54:24;100775.19;;;5.65;55.50
31062;BME280;17724;53.546;9.974;2023-03-26T22:07:15;100804.41;;;5.39;56.57
31062;BME280;17724;53.546;9.974;2023-03-26T22:11:17;100799.69;;;5.03;57.13
31062;BME280;17724;53.546;9.974;2023-03-26T22:15:17;100805.97;;;5.29;57.68
31062;BME280;17724;53.546;9.974;2023-03-26T22:19:19;100806.97;;;5.34;57.38
31062;BME280;17724;53.546;9.974;2023-03-26T22:23:19;100813.00;;;5.43;58.06
31062;BME280;17724;53.546;9.974;2023-03-26T22:27:20;100817.44;;;5.37;57.62
31062;BME280;17724;53.546;9.974;2023-03-26T22:31:20;100825.03;;;5.54;57.65
31062;BME280;17724;53.546;9.974;2023-03-26T22:35:24;100832.47;;;5.47;57.84
31062;BME280;17724;53.546;9.974;2023-03-26T22:39:25;100842.81;;;5.13;58.29
31062;BME280;17724;53.546;9.974;2023-03-26T22:43:27;100849.19;;;5.00;59.65
31062;BME280;17724;53.546;9.974;2023-03-26T22:47:27;100845.09;;;5.16;59.08
31062;BME280;17724;53.546;9.974;2023-03-26T22:51:29;100861.19;;;5.24;59.16
31062;BME280;17724;53.546;9.974;2023-03-26T22:55:30;100864.38;;;5.14;60.21
31062;BME280;17724;53.546;9.974;2023-03-26T22:59:30;100869.34;;;5.24;59.98
31062;BME280;17724;53.546;9.974;2023-03-26T23:03:31;100873.44;;;5.15;59.81
31062;BME280;17724;53.546;9.974;2023-03-26T23:07:32;100881.88;;;5.07;60.84
31062;BME280;17724;53.546;9.974;2023-03-26T23:11:33;100889.66;;;5.03;60.74
31062;BME280;17724;53.546;9.974;2023-03-26T23:15:34;100894.97;;;4.91;60.88
31062;BME280;17724;53.546;9.974;2023-03-26T23:19:34;100890.50;;;4.97;61.99
31062;BME280;17724;53.546;9.974;2023-03-26T23:23:36;100897.94;;;4.83;61.33
31062;BME280;17724;53.546;9.974;2023-03-26T23:27:38;100904.16;;;4.90;62.04
31062;BME280;17724;53.546;9.974;2023-03-26T23:31:40;100910.50;;;4.84;62.45
31062;BME280;17724;53.546;9.974;2023-03-26T23:35:41;100905.22;;;4.89;61.77
31062;BME280;17724;53.546;9.974;2023-03-26T23:39:43;100921.31;;;4.98;63.04
31062;BME280;17724;53.546;9.974;2023-03-26T23:43:47;100918.91;;;4.83;63.79
31062;BME280;17724;53.546;9.974;2023-03-26T23:47:52;100933.94;;;4.92;63.66
31062;BME280;17724;53.546;9.974;2023-03-26T23:51:53;100926.28;;;4.76;62.86
31062;BME280;17724;53.546;9.974;2023-03-26T23:55:54;100921.84;;;4.81;63.65
31062;BME280;17724;53.546;9.974;2023-03-26T23:59:54;100935.06;;;4.78;63.90
